EGLL/LHR METAR and TAF weather

Enter ICAO airport designator
Station Type Date Time Source
EGLL METAR 2019/10/20 19:20 UTC NOAA

EGLL 201920Z AUTO 02006KT 340V050 5000 -RA FEW024/// BKN034/// BKN041/// 11/08 Q1013


Station Type Date Time Source
EGLL Decoded METAR 2019/10/20 19:20 UTC NOAA

London / Heathrow Airport, United Kingdom (EGLL) 51-29N 000-27W 0M
Oct 20, 2019 - 03:20 PM EDT / 2019.10.20 1920 UTC
Wind: from the NNE (020 degrees) at 7 MPH (6 KT) (direction variable):0
Visibility: 3 mile(s):0
Sky conditions: mostly cloudy
Weather: light rain
Temperature: 51 F (11 C)
Dew Point: 46 F (8 C)
Relative Humidity: 81%
Pressure (altimeter): 29.91 in. Hg (1013 hPa)
ob: EGLL 201920Z AUTO 02006KT 340V050 5000 -RA FEW024/// BKN034/// BKN041/// 11/08 Q1013
cycle: 19

Station Type Date Time Source
EGLL TAF 2019/10/20 18:07 UTC NOAA

TAF EGLL 201701Z 2018/2124 36010KT 9999 SCT025
TEMPO 2018/2110 BKN012 PROB30
TEMPO 2100/2107 8000 BKN009 PROB30 2122/2124 8000

Example: see airport list